sensor_id;sensor_type;location;lat;lon;timestamp;P1;durP1;ratioP1;P2;durP2;ratioP2
33814;SDS011;20121;51.910;8.406;2023-03-21T00:00:42;5.72;;;3.20;;
33814;SDS011;20121;51.910;8.406;2023-03-21T00:03:08;3.72;;;2.72;;
33814;SDS011;20121;51.910;8.406;2023-03-21T00:05:34;3.50;;;2.80;;
33814;SDS011;20121;51.910;8.406;2023-03-21T00:08:07;2.88;;;2.20;;
33814;SDS011;20121;51.910;8.406;2023-03-21T00:10:33;3.15;;;2.53;;
33814;SDS011;20121;51.910;8.406;2023-03-21T00:12:58;2.80;;;1.83;;
33814;SDS011;20121;51.910;8.406;2023-03-21T00:15:24;4.20;;;3.00;;
33814;SDS011;20121;51.910;8.406;2023-03-21T00:17:55;2.70;;;2.50;;
33814;SDS011;20121;51.910;8.406;2023-03-21T00:20:27;5.32;;;2.63;;
33814;SDS011;20121;51.910;8.406;2023-03-21T00:23:01;8.50;;;3.10;;
33814;SDS011;20121;51.910;8.406;2023-03-21T00:25:28;2.78;;;1.90;;
33814;SDS011;20121;51.910;8.406;2023-03-21T00:27:53;3.30;;;2.50;;
33814;SDS011;20121;51.910;8.406;2023-03-21T00:30:19;2.60;;;1.90;;
33814;SDS011;20121;51.910;8.406;2023-03-21T00:32:45;3.80;;;3.10;;
33814;SDS011;20121;51.910;8.406;2023-03-21T00:35:11;4.43;;;2.70;;
33814;SDS011;20121;51.910;8.406;2023-03-21T00:37:37;2.73;;;2.40;;
33814;SDS011;20121;51.910;8.406;2023-03-21T00:40:03;4.53;;;3.87;;
33814;SDS011;20121;51.910;8.406;2023-03-21T00:42:36;4.20;;;2.60;;
33814;SDS011;20121;51.910;8.406;2023-03-21T00:45:02;3.20;;;2.90;;
33814;SDS011;20121;51.910;8.406;2023-03-21T00:47:29;15.02;;;3.60;;
33814;SDS011;20121;51.910;8.406;2023-03-21T00:49:54;3.13;;;2.93;;
33814;SDS011;20121;51.910;8.406;2023-03-21T00:52:21;5.35;;;3.83;;
33814;SDS011;20121;51.910;8.406;2023-03-21T00:54:47;9.87;;;4.37;;
33814;SDS011;20121;51.910;8.406;2023-03-21T00:57:12;8.13;;;2.50;;
33814;SDS011;20121;51.910;8.406;2023-03-21T00:59:38;4.67;;;3.43;;
33814;SDS011;20121;51.910;8.406;2023-03-21T01:02:04;9.00;;;4.30;;
33814;SDS011;20121;51.910;8.406;2023-03-21T01:04:31;2.92;;;2.08;;
33814;SDS011;20121;51.910;8.406;2023-03-21T01:07:00;2.20;;;2.00;;
33814;SDS011;20121;51.910;8.406;2023-03-21T01:09:26;3.47;;;2.17;;
33814;SDS011;20121;51.910;8.406;2023-03-21T01:11:52;3.10;;;2.80;;
33814;SDS011;20121;51.910;8.406;2023-03-21T01:14:18;3.60;;;3.17;;
33814;SDS011;20121;51.910;8.406;2023-03-21T01:16:45;12.45;;;3.70;;
33814;SDS011;20121;51.910;8.406;2023-03-21T01:19:13;8.13;;;2.92;;
33814;SDS011;20121;51.910;8.406;2023-03-21T01:21:42;11.20;;;3.13;;
33814;SDS011;20121;51.910;8.406;2023-03-21T01:24:08;2.38;;;2.17;;
33814;SDS011;20121;51.910;8.406;2023-03-21T01:26:34;8.13;;;3.70;;
33814;SDS011;20121;51.910;8.406;2023-03-21T01:29:01;2.40;;;1.95;;
33814;SDS011;20121;51.910;8.406;2023-03-21T01:31:28;2.30;;;2.10;;
33814;SDS011;20121;51.910;8.406;2023-03-21T01:33:53;5.00;;;3.50;;
33814;SDS011;20121;51.910;8.406;2023-03-21T01:36:20;3.60;;;2.80;;
33814;SDS011;20121;51.910;8.406;2023-03-21T01:38:48;6.32;;;2.83;;
33814;SDS011;20121;51.910;8.406;2023-03-21T01:41:25;2.78;;;2.35;;
33814;SDS011;20121;51.910;8.406;2023-03-21T01:43:53;8.13;;;4.35;;
33814;SDS011;20121;51.910;8.406;2023-03-21T01:46:20;6.43;;;4.40;;
33814;SDS011;20121;51.910;8.406;2023-03-21T01:48:49;5.57;;;2.85;;
33814;SDS011;20121;51.910;8.406;2023-03-21T01:51:18;5.97;;;3.30;;
33814;SDS011;20121;51.910;8.406;2023-03-21T01:53:45;4.15;;;3.33;;
33814;SDS011;20121;51.910;8.406;2023-03-21T01:56:17;5.35;;;3.28;;
33814;SDS011;20121;51.910;8.406;2023-03-21T01:58:50;7.78;;;3.58;;
33814;SDS011;20121;51.910;8.406;2023-03-21T02:01:19;4.35;;;3.33;;
33814;SDS011;20121;51.910;8.406;2023-03-21T02:03:47;5.65;;;2.92;;
33814;SDS011;20121;51.910;8.406;2023-03-21T02:06:15;5.68;;;3.45;;
33814;SDS011;20121;51.910;8.406;2023-03-21T02:09:03;4.85;;;2.65;;
33814;SDS011;20121;51.910;8.406;2023-03-21T02:11:33;3.03;;;2.72;;
33814;SDS011;20121;51.910;8.406;2023-03-21T02:14:00;9.80;;;3.95;;
33814;SDS011;20121;51.910;8.406;2023-03-21T02:22:10;3.55;;;3.25;;
33814;SDS011;20121;51.910;8.406;2023-03-21T02:42:17;6.35;;;2.72;;
33814;SDS011;20121;51.910;8.406;2023-03-21T02:47:32;2.90;;;2.60;;
33814;SDS011;20121;51.910;8.406;2023-03-21T02:50:15;3.42;;;2.85;;
33814;SDS011;20121;51.910;8.406;2023-03-21T02:52:48;4.07;;;2.60;;
33814;SDS011;20121;51.910;8.406;2023-03-21T02:55:18;16.08;;;3.40;;
33814;SDS011;20121;51.910;8.406;2023-03-21T02:57:48;5.03;;;2.85;;
33814;SDS011;20121;51.910;8.406;2023-03-21T03:00:16;2.13;;;2.03;;
33814;SDS011;20121;51.910;8.406;2023-03-21T03:02:45;7.95;;;2.78;;
33814;SDS011;20121;51.910;8.406;2023-03-21T03:05:24;7.93;;;4.82;;
33814;SDS011;20121;51.910;8.406;2023-03-21T03:07:55;7.85;;;3.25;;
33814;SDS011;20121;51.910;8.406;2023-03-21T03:10:56;4.55;;;2.63;;
33814;SDS011;20121;51.910;8.406;2023-03-21T03:13:34;5.25;;;3.38;;
33814;SDS011;20121;51.910;8.406;2023-03-21T03:19:02;2.75;;;2.47;;
33814;SDS011;20121;51.910;8.406;2023-03-21T03:21:39;3.67;;;3.33;;
33814;SDS011;20121;51.910;8.406;2023-03-21T03:29:19;14.38;;;3.65;;
33814;SDS011;20121;51.910;8.406;2023-03-21T03:34:19;2.72;;;2.53;;
33814;SDS011;20121;51.910;8.406;2023-03-21T03:36:51;2.80;;;2.60;;
33814;SDS011;20121;51.910;8.406;2023-03-21T03:39:21;4.20;;;3.17;;
33814;SDS011;20121;51.910;8.406;2023-03-21T03:42:06;5.60;;;3.10;;
33814;SDS011;20121;51.910;8.406;2023-03-21T03:44:44;4.00;;;2.95;;
33814;SDS011;20121;51.910;8.406;2023-03-21T03:47:11;3.65;;;3.25;;
33814;SDS011;20121;51.910;8.406;2023-03-21T03:49:56;5.75;;;3.50;;
33814;SDS011;20121;51.910;8.406;2023-03-21T03:52:25;5.57;;;2.45;;
33814;SDS011;20121;51.910;8.406;2023-03-21T03:54:55;7.60;;;4.05;;
33814;SDS011;20121;51.910;8.406;2023-03-21T03:57:22;6.30;;;3.25;;
33814;SDS011;20121;51.910;8.406;2023-03-21T03:59:50;12.70;;;3.90;;
33814;SDS011;20121;51.910;8.406;2023-03-21T04:02:16;3.05;;;2.72;;
33814;SDS011;20121;51.910;8.406;2023-03-21T04:04:44;6.20;;;2.97;;
33814;SDS011;20121;51.910;8.406;2023-03-21T04:07:11;5.43;;;3.45;;
33814;SDS011;20121;51.910;8.406;2023-03-21T04:09:37;6.40;;;2.65;;
33814;SDS011;20121;51.910;8.406;2023-03-21T04:12:02;3.20;;;2.63;;
33814;SDS011;20121;51.910;8.406;2023-03-21T04:14:28;3.37;;;2.40;;
33814;SDS011;20121;51.910;8.406;2023-03-21T04:16:54;4.43;;;4.03;;
33814;SDS011;20121;51.910;8.406;2023-03-21T04:19:19;3.33;;;2.80;;
33814;SDS011;20121;51.910;8.406;2023-03-21T04:21:45;4.20;;;3.80;;
33814;SDS011;20121;51.910;8.406;2023-03-21T04:24:11;4.40;;;3.08;;
33814;SDS011;20121;51.910;8.406;2023-03-21T04:26:38;4.43;;;3.00;;
33814;SDS011;20121;51.910;8.406;2023-03-21T04:29:03;7.32;;;3.97;;
33814;SDS011;20121;51.910;8.406;2023-03-21T04:31:29;4.07;;;3.37;;
33814;SDS011;20121;51.910;8.406;2023-03-21T04:33:57;8.82;;;4.22;;
33814;SDS011;20121;51.910;8.406;2023-03-21T04:36:25;3.60;;;2.97;;
33814;SDS011;20121;51.910;8.406;2023-03-21T04:38:54;2.40;;;2.15;;
33814;SDS011;20121;51.910;8.406;2023-03-21T04:41:25;9.07;;;5.30;;
33814;SDS011;20121;51.910;8.406;2023-03-21T04:43:52;5.97;;;3.65;;
33814;SDS011;20121;51.910;8.406;2023-03-21T04:46:18;3.63;;;3.25;;
33814;SDS011;20121;51.910;8.406;2023-03-21T04:48:43;7.33;;;2.37;;
33814;SDS011;20121;51.910;8.406;2023-03-21T04:51:09;5.90;;;3.53;;
33814;SDS011;20121;51.910;8.406;2023-03-21T04:53:35;3.67;;;2.83;;
33814;SDS011;20121;51.910;8.406;2023-03-21T04:56:02;4.03;;;2.08;;
33814;SDS011;20121;51.910;8.406;2023-03-21T04:58:28;7.03;;;2.70;;
33814;SDS011;20121;51.910;8.406;2023-03-21T05:00:54;3.63;;;3.25;;
33814;SDS011;20121;51.910;8.406;2023-03-21T05:03:21;6.63;;;2.60;;
33814;SDS011;20121;51.910;8.406;2023-03-21T05:05:47;4.00;;;2.90;;
33814;SDS011;20121;51.910;8.406;2023-03-21T05:08:13;5.70;;;3.37;;
33814;SDS011;20121;51.910;8.406;2023-03-21T05:10:39;6.47;;;2.40;;
33814;SDS011;20121;51.910;8.406;2023-03-21T05:13:05;2.53;;;2.33;;
33814;SDS011;20121;51.910;8.406;2023-03-21T05:15:31;3.47;;;3.17;;
33814;SDS011;20121;51.910;8.406;2023-03-21T05:17:56;15.53;;;4.87;;
33814;SDS011;20121;51.910;8.406;2023-03-21T05:20:23;6.57;;;3.92;;
33814;SDS011;20121;51.910;8.406;2023-03-21T05:22:49;6.30;;;4.30;;
33814;SDS011;20121;51.910;8.406;2023-03-21T05:25:16;4.45;;;2.92;;
33814;SDS011;20121;51.910;8.406;2023-03-21T05:27:45;14.60;;;3.97;;
33814;SDS011;20121;51.910;8.406;2023-03-21T05:30:18;2.90;;;2.45;;
33814;SDS011;20121;51.910;8.406;2023-03-21T05:32:44;5.95;;;3.13;;
33814;SDS011;20121;51.910;8.406;2023-03-21T05:35:10;4.70;;;3.00;;
33814;SDS011;20121;51.910;8.406;2023-03-21T05:37:36;7.60;;;2.75;;
33814;SDS011;20121;51.910;8.406;2023-03-21T05:40:02;5.63;;;4.40;;
33814;SDS011;20121;51.910;8.406;2023-03-21T05:42:30;14.02;;;5.25;;
33814;SDS011;20121;51.910;8.406;2023-03-21T05:44:56;5.10;;;2.80;;
33814;SDS011;20121;51.910;8.406;2023-03-21T05:47:22;6.07;;;2.40;;
33814;SDS011;20121;51.910;8.406;2023-03-21T05:49:48;2.73;;;2.53;;
33814;SDS011;20121;51.910;8.406;2023-03-21T05:52:14;4.00;;;2.95;;
33814;SDS011;20121;51.910;8.406;2023-03-21T05:54:40;5.00;;;3.13;;
33814;SDS011;20121;51.910;8.406;2023-03-21T05:57:06;6.30;;;2.80;;
33814;SDS011;20121;51.910;8.406;2023-03-21T05:59:33;3.10;;;2.65;;
33814;SDS011;20121;51.910;8.406;2023-03-21T06:01:59;4.88;;;2.80;;
33814;SDS011;20121;51.910;8.406;2023-03-21T06:04:24;11.13;;;3.60;;
33814;SDS011;20121;51.910;8.406;2023-03-21T06:06:51;6.80;;;3.10;;
33814;SDS011;20121;51.910;8.406;2023-03-21T06:09:18;7.07;;;2.95;;
33814;SDS011;20121;51.910;8.406;2023-03-21T06:11:49;4.28;;;3.10;;
33814;SDS011;20121;51.910;8.406;2023-03-21T06:14:17;6.45;;;3.22;;
33814;SDS011;20121;51.910;8.406;2023-03-21T06:16:43;10.88;;;3.22;;
33814;SDS011;20121;51.910;8.406;2023-03-21T06:19:09;4.32;;;3.15;;
33814;SDS011;20121;51.910;8.406;2023-03-21T06:21:35;2.83;;;2.60;;
33814;SDS011;20121;51.910;8.406;2023-03-21T06:24:00;7.67;;;3.80;;
33814;SDS011;20121;51.910;8.406;2023-03-21T06:26:26;5.80;;;4.13;;
33814;SDS011;20121;51.910;8.406;2023-03-21T06:28:52;6.03;;;2.37;;
33814;SDS011;20121;51.910;8.406;2023-03-21T06:31:18;5.57;;;3.10;;
33814;SDS011;20121;51.910;8.406;2023-03-21T06:33:49;4.85;;;3.03;;
33814;SDS011;20121;51.910;8.406;2023-03-21T06:36:16;3.05;;;1.85;;
33814;SDS011;20121;51.910;8.406;2023-03-21T06:38:42;2.80;;;2.40;;
33814;SDS011;20121;51.910;8.406;2023-03-21T06:41:08;11.73;;;4.27;;
33814;SDS011;20121;51.910;8.406;2023-03-21T06:43:34;3.92;;;3.50;;
33814;SDS011;20121;51.910;8.406;2023-03-21T06:46:00;5.97;;;3.33;;
33814;SDS011;20121;51.910;8.406;2023-03-21T06:48:26;4.70;;;4.10;;
33814;SDS011;20121;51.910;8.406;2023-03-21T06:50:52;8.38;;;5.30;;
33814;SDS011;20121;51.910;8.406;2023-03-21T06:53:19;6.50;;;4.35;;
33814;SDS011;20121;51.910;8.406;2023-03-21T06:55:49;6.20;;;3.50;;
33814;SDS011;20121;51.910;8.406;2023-03-21T06:58:15;6.07;;;3.13;;
33814;SDS011;20121;51.910;8.406;2023-03-21T07:00:41;5.90;;;3.20;;
33814;SDS011;20121;51.910;8.406;2023-03-21T07:03:07;11.33;;;3.80;;
33814;SDS011;20121;51.910;8.406;2023-03-21T07:05:36;5.00;;;3.33;;
33814;SDS011;20121;51.910;8.406;2023-03-21T07:08:02;3.13;;;2.38;;
33814;SDS011;20121;51.910;8.406;2023-03-21T07:10:27;6.78;;;4.05;;
33814;SDS011;20121;51.910;8.406;2023-03-21T07:12:53;4.40;;;4.00;;
33814;SDS011;20121;51.910;8.406;2023-03-21T07:15:19;14.97;;;4.50;;
33814;SDS011;20121;51.910;8.406;2023-03-21T07:17:45;4.47;;;3.92;;
33814;SDS011;20121;51.910;8.406;2023-03-21T07:20:11;20.37;;;4.13;;
33814;SDS011;20121;51.910;8.406;2023-03-21T07:22:36;5.13;;;2.80;;
33814;SDS011;20121;51.910;8.406;2023-03-21T07:25:02;6.87;;;4.03;;
33814;SDS011;20121;51.910;8.406;2023-03-21T07:27:28;6.38;;;3.92;;
33814;SDS011;20121;51.910;8.406;2023-03-21T07:29:54;4.13;;;3.73;;
33814;SDS011;20121;51.910;8.406;2023-03-21T07:32:20;5.43;;;2.80;;
33814;SDS011;20121;51.910;8.406;2023-03-21T07:34:46;3.70;;;2.50;;
33814;SDS011;20121;51.910;8.406;2023-03-21T07:37:11;9.60;;;3.70;;
33814;SDS011;20121;51.910;8.406;2023-03-21T07:39:37;11.48;;;5.60;;
33814;SDS011;20121;51.910;8.406;2023-03-21T07:42:03;5.70;;;5.00;;
33814;SDS011;20121;51.910;8.406;2023-03-21T07:44:29;7.40;;;3.23;;
33814;SDS011;20121;51.910;8.406;2023-03-21T07:46:55;5.83;;;3.93;;
33814;SDS011;20121;51.910;8.406;2023-03-21T07:49:20;11.03;;;3.97;;
33814;SDS011;20121;51.910;8.406;2023-03-21T07:51:46;8.20;;;3.00;;
33814;SDS011;20121;51.910;8.406;2023-03-21T07:54:12;11.47;;;5.40;;
33814;SDS011;20121;51.910;8.406;2023-03-21T07:56:37;7.33;;;3.73;;
33814;SDS011;20121;51.910;8.406;2023-03-21T07:59:03;5.00;;;3.00;;
33814;SDS011;20121;51.910;8.406;2023-03-21T08:01:29;5.45;;;3.55;;
33814;SDS011;20121;51.910;8.406;2023-03-21T08:03:55;5.23;;;3.37;;
33814;SDS011;20121;51.910;8.406;2023-03-21T08:06:21;4.20;;;3.13;;
33814;SDS011;20121;51.910;8.406;2023-03-21T08:08:47;4.40;;;3.33;;
33814;SDS011;20121;51.910;8.406;2023-03-21T08:11:13;18.73;;;4.57;;
33814;SDS011;20121;51.910;8.406;2023-03-21T08:13:39;5.70;;;3.70;;
33814;SDS011;20121;51.910;8.406;2023-03-21T08:16:06;4.78;;;3.70;;
33814;SDS011;20121;51.910;8.406;2023-03-21T08:18:32;4.00;;;2.95;;
33814;SDS011;20121;51.910;8.406;2023-03-21T08:21:03;7.27;;;2.50;;
33814;SDS011;20121;51.910;8.406;2023-03-21T08:23:32;6.53;;;3.13;;
33814;SDS011;20121;51.910;8.406;2023-03-21T08:25:59;3.92;;;2.83;;
33814;SDS011;20121;51.910;8.406;2023-03-21T08:28:25;17.83;;;3.20;;
33814;SDS011;20121;51.910;8.406;2023-03-21T08:30:51;7.30;;;3.22;;
33814;SDS011;20121;51.910;8.406;2023-03-21T08:33:17;8.57;;;3.77;;
33814;SDS011;20121;51.910;8.406;2023-03-21T08:35:43;3.33;;;2.67;;
33814;SDS011;20121;51.910;8.406;2023-03-21T08:38:09;4.32;;;3.30;;
33814;SDS011;20121;51.910;8.406;2023-03-21T08:40:35;7.43;;;4.20;;
33814;SDS011;20121;51.910;8.406;2023-03-21T08:43:01;4.20;;;2.87;;
33814;SDS011;20121;51.910;8.406;2023-03-21T08:45:26;3.97;;;2.40;;
33814;SDS011;20121;51.910;8.406;2023-03-21T08:47:52;5.10;;;3.47;;
33814;SDS011;20121;51.910;8.406;2023-03-21T08:50:19;4.63;;;2.95;;
33814;SDS011;20121;51.910;8.406;2023-03-21T08:52:46;4.75;;;3.70;;
33814;SDS011;20121;51.910;8.406;2023-03-21T08:55:13;7.97;;;2.85;;
33814;SDS011;20121;51.910;8.406;2023-03-21T08:57:40;11.23;;;4.38;;
33814;SDS011;20121;51.910;8.406;2023-03-21T09:00:07;5.65;;;2.92;;
33814;SDS011;20121;51.910;8.406;2023-03-21T09:02:39;6.45;;;3.58;;
33814;SDS011;20121;51.910;8.406;2023-03-21T09:05:06;4.70;;;4.30;;
33814;SDS011;20121;51.910;8.406;2023-03-21T09:07:33;4.63;;;3.50;;
33814;SDS011;20121;51.910;8.406;2023-03-21T09:10:03;5.55;;;4.00;;
33814;SDS011;20121;51.910;8.406;2023-03-21T09:12:31;4.38;;;3.00;;
33814;SDS011;20121;51.910;8.406;2023-03-21T09:14:57;18.75;;;4.95;;
33814;SDS011;20121;51.910;8.406;2023-03-21T09:17:23;7.97;;;3.42;;
33814;SDS011;20121;51.910;8.406;2023-03-21T09:19:49;13.53;;;3.97;;
33814;SDS011;20121;51.910;8.406;2023-03-21T09:22:15;6.90;;;3.33;;
33814;SDS011;20121;51.910;8.406;2023-03-21T09:24:45;5.80;;;3.15;;
33814;SDS011;20121;51.910;8.406;2023-03-21T09:27:14;3.58;;;2.97;;
33814;SDS011;20121;51.910;8.406;2023-03-21T09:29:47;4.80;;;3.65;;
33814;SDS011;20121;51.910;8.406;2023-03-21T09:32:13;9.25;;;5.85;;
33814;SDS011;20121;51.910;8.406;2023-03-21T09:34:39;7.68;;;2.92;;
33814;SDS011;20121;51.910;8.406;2023-03-21T09:37:08;5.70;;;3.33;;
33814;SDS011;20121;51.910;8.406;2023-03-21T09:39:40;3.92;;;3.10;;
33814;SDS011;20121;51.910;8.406;2023-03-21T09:44:45;8.57;;;4.50;;
33814;SDS011;20121;51.910;8.406;2023-03-21T09:47:20;4.22;;;3.05;;
33814;SDS011;20121;51.910;8.406;2023-03-21T09:49:58;9.27;;;4.70;;
33814;SDS011;20121;51.910;8.406;2023-03-21T09:54:58;5.72;;;3.15;;
33814;SDS011;20121;51.910;8.406;2023-03-21T09:57:35;4.05;;;3.15;;
33814;SDS011;20121;51.910;8.406;2023-03-21T10:00:06;6.00;;;3.88;;
33814;SDS011;20121;51.910;8.406;2023-03-21T10:02:42;7.43;;;4.40;;
33814;SDS011;20121;51.910;8.406;2023-03-21T10:05:20;6.43;;;2.97;;
33814;SDS011;20121;51.910;8.406;2023-03-21T10:07:53;4.38;;;2.60;;
33814;SDS011;20121;51.910;8.406;2023-03-21T10:10:27;6.97;;;2.47;;
33814;SDS011;20121;51.910;8.406;2023-03-21T10:12:56;4.22;;;3.25;;
33814;SDS011;20121;51.910;8.406;2023-03-21T10:15:23;5.03;;;3.00;;
33814;SDS011;20121;51.910;8.406;2023-03-21T10:17:52;8.05;;;3.17;;
33814;SDS011;20121;51.910;8.406;2023-03-21T10:23:03;6.47;;;3.33;;
33814;SDS011;20121;51.910;8.406;2023-03-21T10:25:32;5.22;;;2.85;;
33814;SDS011;20121;51.910;8.406;2023-03-21T10:27:58;3.83;;;2.95;;
33814;SDS011;20121;51.910;8.406;2023-03-21T10:32:59;5.10;;;2.60;;
33814;SDS011;20121;51.910;8.406;2023-03-21T10:35:29;20.25;;;3.95;;
33814;SDS011;20121;51.910;8.406;2023-03-21T10:37:58;3.00;;;2.70;;
33814;SDS011;20121;51.910;8.406;2023-03-21T10:40:25;3.65;;;2.95;;
33814;SDS011;20121;51.910;8.406;2023-03-21T10:42:53;3.20;;;2.97;;
33814;SDS011;20121;51.910;8.406;2023-03-21T10:45:20;4.40;;;3.40;;
33814;SDS011;20121;51.910;8.406;2023-03-21T10:47:47;5.55;;;3.45;;
33814;SDS011;20121;51.910;8.406;2023-03-21T10:50:15;3.70;;;3.38;;
33814;SDS011;20121;51.910;8.406;2023-03-21T10:52:48;3.22;;;2.78;;
33814;SDS011;20121;51.910;8.406;2023-03-21T10:55:16;6.88;;;3.65;;
33814;SDS011;20121;51.910;8.406;2023-03-21T10:57:51;6.55;;;4.03;;
33814;SDS011;20121;51.910;8.406;2023-03-21T11:00:24;4.80;;;3.50;;
33814;SDS011;20121;51.910;8.406;2023-03-21T11:02:53;4.47;;;3.95;;
33814;SDS011;20121;51.910;8.406;2023-03-21T11:05:20;6.13;;;3.60;;
33814;SDS011;20121;51.910;8.406;2023-03-21T11:08:04;3.20;;;2.92;;
33814;SDS011;20121;51.910;8.406;2023-03-21T11:10:36;3.30;;;2.83;;
33814;SDS011;20121;51.910;8.406;2023-03-21T11:13:19;7.38;;;3.90;;
33814;SDS011;20121;51.910;8.406;2023-03-21T11:15:58;13.65;;;4.32;;
33814;SDS011;20121;51.910;8.406;2023-03-21T11:18:40;3.75;;;3.08;;
33814;SDS011;20121;51.910;8.406;2023-03-21T11:21:09;7.60;;;3.15;;
33814;SDS011;20121;51.910;8.406;2023-03-21T11:23:37;7.57;;;3.95;;
33814;SDS011;20121;51.910;8.406;2023-03-21T11:26:09;4.90;;;4.28;;
33814;SDS011;20121;51.910;8.406;2023-03-21T11:28:40;3.53;;;3.05;;
33814;SDS011;20121;51.910;8.406;2023-03-21T11:31:08;7.47;;;3.78;;
33814;SDS011;20121;51.910;8.406;2023-03-21T11:33:41;5.03;;;2.65;;
33814;SDS011;20121;51.910;8.406;2023-03-21T11:41:50;11.10;;;4.00;;
33814;SDS011;20121;51.910;8.406;2023-03-21T11:44:23;3.97;;;3.10;;
33814;SDS011;20121;51.910;8.406;2023-03-21T11:46:57;3.67;;;2.83;;
33814;SDS011;20121;51.910;8.406;2023-03-21T11:49:23;5.97;;;3.28;;
33814;SDS011;20121;51.910;8.406;2023-03-21T11:52:08;5.35;;;3.95;;
33814;SDS011;20121;51.910;8.406;2023-03-21T11:57:17;5.63;;;3.30;;
33814;SDS011;20121;51.910;8.406;2023-03-21T12:05:31;3.53;;;3.22;;
33814;SDS011;20121;51.910;8.406;2023-03-21T12:10:49;4.10;;;2.92;;
33814;SDS011;20121;51.910;8.406;2023-03-21T12:25:09;4.25;;;3.22;;
33814;SDS011;20121;51.910;8.406;2023-03-21T12:27:45;3.58;;;3.03;;
33814;SDS011;20121;51.910;8.406;2023-03-21T12:39:33;3.05;;;2.65;;
33814;SDS011;20121;51.910;8.406;2023-03-21T12:41:44;6.47;;;3.03;;
33814;SDS011;20121;51.910;8.406;2023-03-21T12:44:26;2.67;;;2.47;;
33814;SDS011;20121;51.910;8.406;2023-03-21T12:46:57;13.23;;;2.85;;
33814;SDS011;20121;51.910;8.406;2023-03-21T12:52:49;4.53;;;3.00;;
33814;SDS011;20121;51.910;8.406;2023-03-21T12:55:22;3.45;;;2.88;;
33814;SDS011;20121;51.910;8.406;2023-03-21T12:57:56;5.82;;;2.28;;
33814;SDS011;20121;51.910;8.406;2023-03-21T13:00:43;1.85;;;1.67;;
33814;SDS011;20121;51.910;8.406;2023-03-21T13:03:13;2.30;;;2.00;;
33814;SDS011;20121;51.910;8.406;2023-03-21T13:05:47;2.00;;;1.58;;
33814;SDS011;20121;51.910;8.406;2023-03-21T13:11:06;4.03;;;2.35;;
33814;SDS011;20121;51.910;8.406;2023-03-21T13:16:20;5.53;;;2.30;;
33814;SDS011;20121;51.910;8.406;2023-03-21T13:26:42;3.47;;;2.30;;
33814;SDS011;20121;51.910;8.406;2023-03-21T13:29:19;3.80;;;2.38;;
33814;SDS011;20121;51.910;8.406;2023-03-21T13:31:58;3.30;;;2.20;;
33814;SDS011;20121;51.910;8.406;2023-03-21T13:34:36;2.03;;;1.63;;
33814;SDS011;20121;51.910;8.406;2023-03-21T13:37:03;3.22;;;2.30;;
33814;SDS011;20121;51.910;8.406;2023-03-21T13:39:29;4.28;;;1.80;;
33814;SDS011;20121;51.910;8.406;2023-03-21T13:41:58;2.80;;;2.20;;
33814;SDS011;20121;51.910;8.406;2023-03-21T13:44:40;1.70;;;1.60;;
33814;SDS011;20121;51.910;8.406;2023-03-21T13:50:13;2.67;;;2.33;;
33814;SDS011;20121;51.910;8.406;2023-03-21T13:52:42;2.60;;;2.40;;
33814;SDS011;20121;51.910;8.406;2023-03-21T13:55:28;2.97;;;1.98;;
33814;SDS011;20121;51.910;8.406;2023-03-21T13:58:00;1.60;;;1.50;;
33814;SDS011;20121;51.910;8.406;2023-03-21T14:06:42;8.20;;;2.70;;
33814;SDS011;20121;51.910;8.406;2023-03-21T14:09:20;2.05;;;1.85;;
33814;SDS011;20121;51.910;8.406;2023-03-21T14:11:53;2.88;;;2.05;;
33814;SDS011;20121;51.910;8.406;2023-03-21T14:14:20;1.83;;;1.73;;
33814;SDS011;20121;51.910;8.406;2023-03-21T14:16:51;2.78;;;2.22;;
33814;SDS011;20121;51.910;8.406;2023-03-21T14:19:17;1.75;;;1.65;;
33814;SDS011;20121;51.910;8.406;2023-03-21T14:21:49;3.00;;;2.20;;
33814;SDS011;20121;51.910;8.406;2023-03-21T14:24:17;3.97;;;2.20;;
33814;SDS011;20121;51.910;8.406;2023-03-21T14:26:50;2.75;;;2.13;;
33814;SDS011;20121;51.910;8.406;2023-03-21T14:29:20;1.95;;;1.73;;
33814;SDS011;20121;51.910;8.406;2023-03-21T14:31:52;3.92;;;2.47;;
33814;SDS011;20121;51.910;8.406;2023-03-21T14:34:20;4.03;;;2.75;;
33814;SDS011;20121;51.910;8.406;2023-03-21T14:36:46;4.15;;;2.22;;
33814;SDS011;20121;51.910;8.406;2023-03-21T14:39:22;2.10;;;1.90;;
33814;SDS011;20121;51.910;8.406;2023-03-21T14:41:52;2.38;;;1.83;;
33814;SDS011;20121;51.910;8.406;2023-03-21T14:44:21;5.50;;;2.10;;
33814;SDS011;20121;51.910;8.406;2023-03-21T14:47:00;2.75;;;2.30;;
33814;SDS011;20121;51.910;8.406;2023-03-21T14:49:33;1.70;;;1.60;;
33814;SDS011;20121;51.910;8.406;2023-03-21T14:52:02;1.85;;;1.23;;
33814;SDS011;20121;51.910;8.406;2023-03-21T14:54:32;1.20;;;1.10;;
33814;SDS011;20121;51.910;8.406;2023-03-21T14:56:59;2.67;;;1.15;;
33814;SDS011;20121;51.910;8.406;2023-03-21T14:59:33;1.73;;;1.35;;
33814;SDS011;20121;51.910;8.406;2023-03-21T15:02:05;1.92;;;1.20;;
33814;SDS011;20121;51.910;8.406;2023-03-21T15:04:50;2.20;;;1.30;;
33814;SDS011;20121;51.910;8.406;2023-03-21T15:07:22;1.13;;;1.02;;
33814;SDS011;20121;51.910;8.406;2023-03-21T15:10:00;1.38;;;1.27;;
33814;SDS011;20121;51.910;8.406;2023-03-21T15:12:29;2.67;;;1.30;;
33814;SDS011;20121;51.910;8.406;2023-03-21T15:14:55;2.38;;;1.67;;
33814;SDS011;20121;51.910;8.406;2023-03-21T15:17:22;5.05;;;1.20;;
33814;SDS011;20121;51.910;8.406;2023-03-21T15:19:49;2.00;;;1.30;;
33814;SDS011;20121;51.910;8.406;2023-03-21T15:22:21;3.10;;;1.60;;
33814;SDS011;20121;51.910;8.406;2023-03-21T15:24:52;1.60;;;1.50;;
33814;SDS011;20121;51.910;8.406;2023-03-21T15:27:23;1.35;;;1.25;;
33814;SDS011;20121;51.910;8.406;2023-03-21T15:29:50;1.80;;;1.35;;
33814;SDS011;20121;51.910;8.406;2023-03-21T15:32:22;3.45;;;1.63;;
33814;SDS011;20121;51.910;8.406;2023-03-21T15:34:50;1.30;;;1.20;;
33814;SDS011;20121;51.910;8.406;2023-03-21T15:37:25;1.55;;;1.25;;
33814;SDS011;20121;51.910;8.406;2023-03-21T15:39:52;1.38;;;1.25;;
33814;SDS011;20121;51.910;8.406;2023-03-21T15:42:39;5.45;;;1.25;;
33814;SDS011;20121;51.910;8.406;2023-03-21T15:47:50;1.52;;;1.23;;
33814;SDS011;20121;51.910;8.406;2023-03-21T15:52:51;3.00;;;1.48;;
33814;SDS011;20121;51.910;8.406;2023-03-21T15:55:22;2.65;;;1.35;;
33814;SDS011;20121;51.910;8.406;2023-03-21T15:57:58;4.35;;;1.65;;
33814;SDS011;20121;51.910;8.406;2023-03-21T16:03:05;1.05;;;0.95;;
33814;SDS011;20121;51.910;8.406;2023-03-21T16:05:36;1.33;;;1.23;;
33814;SDS011;20121;51.910;8.406;2023-03-21T16:08:17;1.13;;;1.00;;
33814;SDS011;20121;51.910;8.406;2023-03-21T16:10:45;1.45;;;1.13;;
33814;SDS011;20121;51.910;8.406;2023-03-21T16:13:12;1.50;;;1.40;;
33814;SDS011;20121;51.910;8.406;2023-03-21T16:15:38;1.02;;;1.00;;
33814;SDS011;20121;51.910;8.406;2023-03-21T16:18:05;1.17;;;1.00;;
33814;SDS011;20121;51.910;8.406;2023-03-21T16:20:33;1.40;;;0.90;;
33814;SDS011;20121;51.910;8.406;2023-03-21T16:23:04;1.33;;;1.05;;
33814;SDS011;20121;51.910;8.406;2023-03-21T16:25:30;3.15;;;1.52;;
33814;SDS011;20121;51.910;8.406;2023-03-21T16:27:57;2.00;;;1.65;;
33814;SDS011;20121;51.910;8.406;2023-03-21T16:30:23;1.10;;;1.00;;
33814;SDS011;20121;51.910;8.406;2023-03-21T16:32:49;1.13;;;1.03;;
33814;SDS011;20121;51.910;8.406;2023-03-21T16:35:15;6.30;;;1.20;;
33814;SDS011;20121;51.910;8.406;2023-03-21T16:37:41;2.90;;;1.33;;
33814;SDS011;20121;51.910;8.406;2023-03-21T16:40:10;1.13;;;1.03;;
33814;SDS011;20121;51.910;8.406;2023-03-21T16:42:45;1.50;;;1.30;;
33814;SDS011;20121;51.910;8.406;2023-03-21T16:45:11;1.87;;;1.40;;
33814;SDS011;20121;51.910;8.406;2023-03-21T16:47:37;1.57;;;1.47;;
33814;SDS011;20121;51.910;8.406;2023-03-21T16:50:09;3.37;;;1.17;;
33814;SDS011;20121;51.910;8.406;2023-03-21T16:52:49;1.35;;;1.25;;
33814;SDS011;20121;51.910;8.406;2023-03-21T16:55:14;2.10;;;1.30;;